createdAt,value
2019-05-09T00:02:29.454Z,85.50
2019-05-09T00:05:03.413Z,85.80
2019-05-09T00:07:34.308Z,86.00
2019-05-09T00:10:07.002Z,85.60
2019-05-09T00:12:38.939Z,85.80
2019-05-09T00:15:13.505Z,85.70
2019-05-09T00:17:45.144Z,86.00
2019-05-09T00:20:18.167Z,86.00
2019-05-09T00:22:49.894Z,85.50
2019-05-09T00:25:23.606Z,85.40
2019-05-09T00:27:54.982Z,85.50
2019-05-09T00:30:27.748Z,85.60
2019-05-09T00:32:59.399Z,85.70
2019-05-09T00:35:33.830Z,85.80
2019-05-09T00:38:07.219Z,85.80
2019-05-09T00:40:54.595Z,85.40
2019-05-09T00:43:13.164Z,85.40
2019-05-09T00:45:46.653Z,84.90
2019-05-09T00:48:19.701Z,84.90
2019-05-09T00:50:51.568Z,84.80
2019-05-09T00:53:23.502Z,84.80
2019-05-09T00:55:55.548Z,84.60
2019-05-09T00:58:27.617Z,85.10
2019-05-09T01:00:59.597Z,83.70
2019-05-09T01:03:34.191Z,83.60
2019-05-09T01:06:06.370Z,83.50
2019-05-09T01:08:38.579Z,83.70
2019-05-09T01:11:13.159Z,83.20
2019-05-09T01:13:44.250Z,82.90
2019-05-09T01:16:17.190Z,82.80
2019-05-09T01:18:48.949Z,82.90
2019-05-09T01:21:20.570Z,82.60
2019-05-09T01:23:53.900Z,82.50
2019-05-09T01:26:25.978Z,82.30
2019-05-09T01:28:57.899Z,82.10
2019-05-09T01:31:29.683Z,82.20
2019-05-09T01:34:07.061Z,82.20
2019-05-09T01:36:40.108Z,82.00
2019-05-09T01:39:13.664Z,81.80
2019-05-09T01:41:44.543Z,81.50
2019-05-09T01:44:16.074Z,81.60
2019-05-09T01:46:47.900Z,81.90
2019-05-09T01:49:19.700Z,81.90
2019-05-09T01:51:53.555Z,81.60
2019-05-09T01:54:26.293Z,81.40
2019-05-09T01:56:58.426Z,81.80
2019-05-09T01:59:30.693Z,81.10
2019-05-09T02:02:08.338Z,81.10
2019-05-09T02:04:36.206Z,80.90
2019-05-09T02:07:08.096Z,80.80
2019-05-09T02:09:39.414Z,80.80
2019-05-09T02:12:11.082Z,80.10
2019-05-09T02:14:44.029Z,80.20
2019-05-09T02:17:17.243Z,79.90
2019-05-09T02:19:52.825Z,79.80
2019-05-09T02:22:29.317Z,79.60
2019-05-09T02:24:59.879Z,79.30
2019-05-09T02:27:36.986Z,79.30
2019-05-09T02:30:14.774Z,79.10
2019-05-09T02:32:45.080Z,78.70
2019-05-09T02:35:17.132Z,78.90
2019-05-09T02:37:49.790Z,78.50
2019-05-09T02:40:22.212Z,78.10
2019-05-09T02:42:54.073Z,77.80
2019-05-09T02:45:28.405Z,78.10
2019-05-09T02:47:59.966Z,78.10
2019-05-09T02:50:31.487Z,77.80
2019-05-09T02:53:03.701Z,77.80
2019-05-09T02:55:38.554Z,76.80
2019-05-09T02:58:10.035Z,77.30
2019-05-09T03:00:43.029Z,77.30
2019-05-09T03:03:14.839Z,77.10
2019-05-09T03:05:48.776Z,77.00
2019-05-09T03:08:21.748Z,76.70
2019-05-09T03:10:53.738Z,76.50
2019-05-09T03:13:28.674Z,76.60
2019-05-09T03:16:00.021Z,76.30
2019-05-09T03:18:32.060Z,76.50
2019-05-09T03:21:05.201Z,76.30
2019-05-09T03:23:38.853Z,76.10
2019-05-09T03:26:12.187Z,75.10
2019-05-09T03:28:45.575Z,75.40
2019-05-09T03:31:19.692Z,75.10
2019-05-09T03:33:51.630Z,74.60
2019-05-09T03:36:23.572Z,74.80
2019-05-09T03:38:57.700Z,74.80
2019-05-09T03:41:28.900Z,74.50
2019-05-09T03:44:00.134Z,74.60
2019-05-09T03:46:32.703Z,74.80
2019-05-09T03:49:07.492Z,74.80
2019-05-09T03:51:38.885Z,74.30
2019-05-09T03:54:10.526Z,74.40
2019-05-09T03:56:43.690Z,74.20
2019-05-09T03:59:17.460Z,73.70
2019-05-09T04:01:50.366Z,73.80
2019-05-09T04:04:20.984Z,73.50
2019-05-09T04:06:52.163Z,73.70
2019-05-09T04:09:24.177Z,73.40
2019-05-09T04:11:58.295Z,72.90
2019-05-09T04:14:30.531Z,72.90
2019-05-09T04:17:02.572Z,72.70
2019-05-09T04:19:38.040Z,72.70
2019-05-09T04:22:09.469Z,72.60
2019-05-09T04:24:41.502Z,71.90
2019-05-09T04:27:14.508Z,71.90
2019-05-09T04:29:48.267Z,70.80
2019-05-09T04:32:19.449Z,68.70
2019-05-09T04:34:51.424Z,68.80
2019-05-09T04:37:23.572Z,67.30
2019-05-09T04:39:59.569Z,68.00
2019-05-09T04:42:28.827Z,67.20
2019-05-09T04:45:03.414Z,66.50
2019-05-09T04:47:41.370Z,68.60
2019-05-09T04:50:09.357Z,68.10
2019-05-09T04:52:41.887Z,67.70
2019-05-09T04:55:14.789Z,67.90
2019-05-09T04:57:48.592Z,67.30
2019-05-09T05:00:21.843Z,66.80
2019-05-09T05:02:55.068Z,66.10
2019-05-09T05:05:28.353Z,66.00
2019-05-09T05:07:59.004Z,66.00
2019-05-09T05:10:32.093Z,66.70
2019-05-09T05:13:03.857Z,66.50
2019-05-09T05:15:37.674Z,66.50
2019-05-09T05:18:17.351Z,67.00
2019-05-09T05:20:48.823Z,67.70
2019-05-09T05:23:21.403Z,67.50
2019-05-09T05:25:52.926Z,67.40
2019-05-09T05:28:24.180Z,67.00
2019-05-09T05:30:58.077Z,67.20
2019-05-09T05:33:30.284Z,67.10
2019-05-09T05:36:03.330Z,67.90
2019-05-09T05:38:37.557Z,67.60
2019-05-09T05:41:08.837Z,67.50
2019-05-09T05:43:44.565Z,67.00
2019-05-09T05:46:15.180Z,67.40
2019-05-09T05:48:48.660Z,65.60
2019-05-09T05:51:21.960Z,66.90
2019-05-09T05:53:54.333Z,66.60
2019-05-09T05:56:27.986Z,66.30
2019-05-09T05:58:59.572Z,66.30
2019-05-09T06:01:31.360Z,64.50
2019-05-09T06:04:03.297Z,64.80
2019-05-09T06:06:37.334Z,64.80
2019-05-09T06:09:09.558Z,65.30
2019-05-09T06:11:41.423Z,64.10
2019-05-09T06:14:13.262Z,64.50
2019-05-09T06:16:45.294Z,65.30
2019-05-09T06:19:17.830Z,65.70
2019-05-09T06:21:52.301Z,65.00
2019-05-09T06:24:23.165Z,63.20
2019-05-09T06:26:55.399Z,63.70
2019-05-09T06:29:28.609Z,64.00
2019-05-09T06:31:59.726Z,63.10
2019-05-09T06:34:31.216Z,63.20
2019-05-09T06:37:03.557Z,63.60
2019-05-09T06:39:37.179Z,63.40
2019-05-09T06:42:28.674Z,63.30
2019-05-09T06:45:01.736Z,63.40
2019-05-09T06:47:34.776Z,63.80
2019-05-09T06:50:09.113Z,64.00
2019-05-09T06:52:40.419Z,63.50
2019-05-09T06:55:12.721Z,62.60
2019-05-09T06:57:44.202Z,63.00
2019-05-09T07:00:18.148Z,63.30
2019-05-09T07:02:51.102Z,63.20
2019-05-09T07:05:25.437Z,62.90
2019-05-09T07:07:58.462Z,62.80
2019-05-09T07:10:30.522Z,63.30
2019-05-09T07:13:02.103Z,63.50
2019-05-09T07:15:33.803Z,63.40
2019-05-09T07:18:07.949Z,63.30
2019-05-09T07:20:39.351Z,62.60
2019-05-09T07:23:23.601Z,62.90
2019-05-09T07:25:58.155Z,63.10
2019-05-09T07:28:30.210Z,63.40
2019-05-09T07:31:03.217Z,63.60
2019-05-09T07:33:38.212Z,62.70
2019-05-09T07:36:08.656Z,62.60
2019-05-09T07:38:40.183Z,63.00
2019-05-09T07:41:11.669Z,62.60
2019-05-09T07:43:43.685Z,61.70
2019-05-09T07:46:17.754Z,62.10
2019-05-09T07:48:50.916Z,63.40
2019-05-09T07:51:22.800Z,63.50
2019-05-09T07:53:55.067Z,63.70
2019-05-09T07:56:28.484Z,64.30
2019-05-09T07:59:00.230Z,64.60
2019-05-09T08:01:32.085Z,65.00
2019-05-09T08:04:04.083Z,65.20
2019-05-09T08:06:37.966Z,65.30
2019-05-09T08:09:12.306Z,65.50
2019-05-09T08:11:43.701Z,65.30
2019-05-09T08:14:17.584Z,65.30
2019-05-09T08:16:49.164Z,66.00
2019-05-09T08:19:24.207Z,66.60
2019-05-09T08:21:57.523Z,66.20
2019-05-09T08:24:28.854Z,66.50
2019-05-09T08:27:01.127Z,66.20
2019-05-09T08:29:32.736Z,65.60
2019-05-09T08:32:07.283Z,65.60
2019-05-09T08:34:38.741Z,66.00
2019-05-09T08:37:12.558Z,65.90
2019-05-09T08:39:43.978Z,65.50
2019-05-09T08:42:19.635Z,65.50
2019-05-09T08:44:49.333Z,65.50
2019-05-09T08:47:20.737Z,65.50
2019-05-09T08:49:53.504Z,65.60
2019-05-09T08:52:24.976Z,65.30
2019-05-09T08:54:58.073Z,65.40
2019-05-09T08:57:30.242Z,65.40
2019-05-09T09:00:02.097Z,65.80
2019-05-09T09:02:37.536Z,65.90
2019-05-09T09:05:09.416Z,66.10
2019-05-09T09:07:41.058Z,66.00
2019-05-09T09:10:13.235Z,66.10
2019-05-09T09:12:47.527Z,66.10
2019-05-09T09:15:21.188Z,63.00
2019-05-09T09:17:53.274Z,61.40
2019-05-09T09:20:25.366Z,61.20
2019-05-09T09:22:58.232Z,63.90
2019-05-09T09:25:30.346Z,68.40
2019-05-09T09:28:02.128Z,69.00
2019-05-09T09:30:33.674Z,70.50
2019-05-09T09:33:05.441Z,72.10
2019-05-09T09:35:38.280Z,74.60
2019-05-09T09:38:10.943Z,75.30
2019-05-09T09:40:42.900Z,77.80
2019-05-09T09:43:17.439Z,79.90
2019-05-09T09:45:52.990Z,81.90
2019-05-09T09:48:28.337Z,82.00
2019-05-09T09:50:58.714Z,83.30
2019-05-09T09:53:30.590Z,83.40
2019-05-09T09:56:02.654Z,84.60
2019-05-09T09:58:34.653Z,85.60
2019-05-09T10:01:08.980Z,86.00
2019-05-09T10:03:41.046Z,85.80
2019-05-09T10:06:12.420Z,84.00
2019-05-09T10:08:43.944Z,83.50
2019-05-09T10:11:17.818Z,81.60
2019-05-09T10:13:51.919Z,81.80
2019-05-09T10:16:28.699Z,81.70
2019-05-09T10:18:58.171Z,82.50
2019-05-09T10:21:33.418Z,83.70
2019-05-09T10:24:05.302Z,83.20
2019-05-09T10:26:39.002Z,82.50
2019-05-09T10:29:11.524Z,82.10
2019-05-09T10:31:43.454Z,82.60
2019-05-09T10:34:17.637Z,83.10
2019-05-09T10:36:49.456Z,82.80
2019-05-09T10:39:21.361Z,82.60
2019-05-09T10:41:53.923Z,82.10
2019-05-09T10:44:28.402Z,82.40
2019-05-09T10:47:02.306Z,82.00
2019-05-09T10:49:34.123Z,83.20
2019-05-09T10:52:09.545Z,83.10
2019-05-09T10:54:40.442Z,82.00
2019-05-09T10:57:12.384Z,82.00
2019-05-09T10:59:44.906Z,82.10
2019-05-09T11:02:17.494Z,83.10
2019-05-09T11:04:49.508Z,83.20
2019-05-09T11:07:23.075Z,84.70
2019-05-09T11:09:54.681Z,83.50
2019-05-09T11:12:27.579Z,84.50
2019-05-09T11:14:59.642Z,83.30
2019-05-09T11:17:31.200Z,83.00
2019-05-09T11:20:04.896Z,83.60
2019-05-09T11:22:38.630Z,83.80
2019-05-09T11:25:09.270Z,84.90
2019-05-09T11:27:41.234Z,85.70
2019-05-09T11:30:13.147Z,84.60
2019-05-09T11:32:45.085Z,85.50
2019-05-09T11:35:17.659Z,85.60
2019-05-09T11:37:49.387Z,85.70
2019-05-09T11:40:20.980Z,84.90
2019-05-09T11:42:52.511Z,85.10
2019-05-09T11:45:25.307Z,85.50
2019-05-09T11:47:58.272Z,85.90
2019-05-09T11:50:30.517Z,85.80
2019-05-09T11:53:02.318Z,85.90
2019-05-09T11:55:36.557Z,86.00
2019-05-09T11:58:10.201Z,85.40
2019-05-09T12:00:42.162Z,85.60
2019-05-09T12:03:14.102Z,85.30
2019-05-09T12:05:47.593Z,86.30
2019-05-09T12:08:20.026Z,86.50
2019-05-09T12:10:51.328Z,86.70
2019-05-09T12:13:23.123Z,86.20
2019-05-09T12:15:55.341Z,86.00
2019-05-09T12:18:28.583Z,86.60
2019-05-09T12:21:00.846Z,86.80
2019-05-09T12:23:32.547Z,86.80
2019-05-09T12:26:04.615Z,87.00
2019-05-09T12:28:38.680Z,87.70
2019-05-09T12:31:09.925Z,86.60
2019-05-09T12:34:00.957Z,86.40
2019-05-09T12:36:32.552Z,86.60
2019-05-09T12:39:04.500Z,86.70
2019-05-09T12:41:38.431Z,86.90
2019-05-09T12:44:09.377Z,87.20
2019-05-09T12:46:41.409Z,87.70
2019-05-09T12:49:13.332Z,87.30
2019-05-09T12:51:52.897Z,87.10
2019-05-09T12:54:27.969Z,87.60
2019-05-09T12:56:59.271Z,87.60
2019-05-09T12:59:45.515Z,87.50
2019-05-09T13:02:10.921Z,87.60
2019-05-09T13:04:52.669Z,87.90
2019-05-09T13:07:24.732Z,88.00
2019-05-09T13:09:58.033Z,88.00
2019-05-09T13:12:31.386Z,87.80
2019-05-09T13:15:09.554Z,87.60
2019-05-09T13:17:42.692Z,87.80
2019-05-09T13:20:17.911Z,88.00
2019-05-09T13:23:00.516Z,87.90
2019-05-09T13:25:32.412Z,87.90
2019-05-09T13:28:04.402Z,88.20
2019-05-09T13:30:39.390Z,87.60
2019-05-09T13:33:11.480Z,87.30
2019-05-09T13:35:43.329Z,87.00
2019-05-09T13:38:17.774Z,86.80
2019-05-09T13:40:53.631Z,86.50
2019-05-09T13:43:20.594Z,86.10
2019-05-09T13:45:52.601Z,86.50
2019-05-09T13:48:56.209Z,86.80
2019-05-09T13:51:04.677Z,86.20
2019-05-09T13:53:38.708Z,86.80
2019-05-09T13:56:10.340Z,87.40
2019-05-09T13:58:42.042Z,87.10
2019-05-09T14:01:13.185Z,87.20
2019-05-09T14:03:44.871Z,86.80
2019-05-09T14:06:16.383Z,86.10
2019-05-09T14:08:49.717Z,85.30
2019-05-09T14:11:22.796Z,85.30
2019-05-09T14:14:12.552Z,85.90
2019-05-09T14:16:44.294Z,85.20
2019-05-09T14:19:39.627Z,85.50
2019-05-09T14:28:22.462Z,85.30
2019-05-09T14:30:59.395Z,85.40
2019-05-09T14:33:39.816Z,85.20
2019-05-09T14:36:08.237Z,85.60
2019-05-09T14:42:11.317Z,86.10
2019-05-09T14:44:47.245Z,86.50
2019-05-09T14:47:19.838Z,87.10
2019-05-09T14:55:22.174Z,86.30
2019-05-09T14:58:19.227Z,87.20
2019-05-09T15:00:51.175Z,87.90
2019-05-09T15:03:23.197Z,88.20
2019-05-09T15:05:57.266Z,88.30
2019-05-09T15:08:40.859Z,88.50
2019-05-09T15:11:04.429Z,88.70
2019-05-09T15:13:36.151Z,89.10
2019-05-09T15:16:18.467Z,89.30
2019-05-09T15:18:49.938Z,89.80
2019-05-09T15:21:26.980Z,89.60
2019-05-09T15:23:58.738Z,90.00
2019-05-09T15:26:31.330Z,89.90
2019-05-09T15:29:08.257Z,90.00
2019-05-09T15:31:45.056Z,89.80
2019-05-09T15:34:20.551Z,90.00
2019-05-09T15:39:48.437Z,89.50
2019-05-09T15:42:32.935Z,89.40
2019-05-09T15:45:11.911Z,89.40
2019-05-09T15:47:40.987Z,89.40
2019-05-09T15:50:22.508Z,89.30
2019-05-09T15:52:53.584Z,89.30
2019-05-09T15:59:08.377Z,89.40
2019-05-09T16:01:40.169Z,89.70
2019-05-09T16:04:12.062Z,89.70
2019-05-09T16:06:44.446Z,89.50
2019-05-09T16:09:22.321Z,89.60
2019-05-09T16:12:00.300Z,89.50
2019-05-09T16:14:29.937Z,89.20
2019-05-09T16:17:02.763Z,89.10
2019-05-09T16:19:34.504Z,89.20
2019-05-09T16:22:08.027Z,89.20
2019-05-09T16:24:39.972Z,89.80
2019-05-09T16:27:11.921Z,89.50
2019-05-09T16:29:43.455Z,89.40
2019-05-09T16:32:17.636Z,89.40
2019-05-09T16:34:48.626Z,89.30
2019-05-09T16:37:20.123Z,89.30
2019-05-09T16:39:52.412Z,89.20
2019-05-09T16:42:24.280Z,89.30
2019-05-09T16:44:59.162Z,89.70
2019-05-09T16:47:29.165Z,89.60
2019-05-09T16:50:00.885Z,89.50
2019-05-09T16:52:33.883Z,89.60
2019-05-09T16:55:11.456Z,89.80
2019-05-09T16:57:43.318Z,89.80
2019-05-09T17:00:27.472Z,90.10
2019-05-09T17:03:00.151Z,90.20
2019-05-09T17:05:31.442Z,90.60
2019-05-09T17:08:08.011Z,90.20
2019-05-09T17:10:38.676Z,90.20
2019-05-09T17:13:13.635Z,90.30
2019-05-09T17:15:45.626Z,90.20
2019-05-09T17:18:18.955Z,90.10
2019-05-09T17:20:54.500Z,90.10
2019-05-09T17:23:29.613Z,90.20
2019-05-09T17:26:08.615Z,90.20
2019-05-09T17:28:37.631Z,90.30
2019-05-09T17:31:11.554Z,90.20
2019-05-09T17:33:42.625Z,90.30
2019-05-09T17:36:14.768Z,90.40
2019-05-09T17:38:47.839Z,90.30
2019-05-09T17:41:22.170Z,90.30
2019-05-09T17:43:54.447Z,90.30
2019-05-09T17:46:27.556Z,90.40
2019-05-09T17:49:02.453Z,90.50
2019-05-09T17:51:41.770Z,90.60
2019-05-09T17:54:10.659Z,90.60
2019-05-09T17:56:43.167Z,90.80
2019-05-09T17:59:13.929Z,90.70
2019-05-09T18:01:48.088Z,90.60
2019-05-09T18:04:20.920Z,90.50
2019-05-09T18:06:54.810Z,90.20
2019-05-09T18:09:28.579Z,90.20
2019-05-09T18:11:59.800Z,89.70
2019-05-09T18:14:31.266Z,89.90
2019-05-09T18:17:03.512Z,90.00
2019-05-09T18:19:37.938Z,89.80
2019-05-09T18:22:10.647Z,89.80
2019-05-09T18:24:42.540Z,89.70
2019-05-09T18:27:18.128Z,90.00
2019-05-09T18:29:49.781Z,90.00
2019-05-09T18:32:21.461Z,90.00
2019-05-09T18:34:54.052Z,89.80
2019-05-09T18:37:27.851Z,89.90
2019-05-09T18:39:58.482Z,89.90
2019-05-09T18:42:29.918Z,90.00
2019-05-09T18:45:03.081Z,90.00
2019-05-09T18:47:37.238Z,90.00
2019-05-09T18:50:09.688Z,90.00
2019-05-09T18:52:44.766Z,90.00
2019-05-09T18:55:15.725Z,90.00
2019-05-09T18:57:47.794Z,90.60
2019-05-09T19:00:23.389Z,90.20
2019-05-09T19:02:54.214Z,90.00
2019-05-09T19:05:26.673Z,90.10
2019-05-09T19:07:58.721Z,90.10
2019-05-09T19:10:30.501Z,90.20
2019-05-09T19:13:03.879Z,90.30
2019-05-09T19:15:37.045Z,90.30
2019-05-09T19:18:08.687Z,90.20
2019-05-09T19:20:40.164Z,90.40
2019-05-09T19:23:11.798Z,90.40
2019-05-09T19:25:44.085Z,90.50
2019-05-09T19:28:16.300Z,90.50
2019-05-09T19:30:47.914Z,90.50
2019-05-09T19:33:19.485Z,90.50
2019-05-09T19:35:51.372Z,90.60
2019-05-09T19:38:23.170Z,90.50
2019-05-09T19:40:55.229Z,90.40
2019-05-09T19:43:27.277Z,90.30
2019-05-09T19:45:58.544Z,90.30
2019-05-09T19:48:40.934Z,90.40
2019-05-09T19:51:12.367Z,90.50
2019-05-09T19:53:43.772Z,90.40
2019-05-09T19:56:15.722Z,90.50
2019-05-09T19:58:47.816Z,90.50
2019-05-09T20:01:21.001Z,90.50
2019-05-09T20:03:53.138Z,90.40
2019-05-09T20:06:25.149Z,90.40
2019-05-09T20:08:57.059Z,90.30
2019-05-09T20:11:32.993Z,90.20
2019-05-09T20:14:04.310Z,89.80
2019-05-09T20:16:37.756Z,89.40
2019-05-09T20:19:09.184Z,89.90
2019-05-09T20:21:41.301Z,89.40
2019-05-09T20:24:13.351Z,89.60
2019-05-09T20:26:45.406Z,89.00
2019-05-09T20:29:17.087Z,88.60
2019-05-09T20:31:48.862Z,88.20
2019-05-09T20:34:20.862Z,88.40
2019-05-09T20:36:52.678Z,89.00
2019-05-09T20:39:26.653Z,88.80
2019-05-09T20:41:59.076Z,89.30
2019-05-09T20:44:31.137Z,89.20
2019-05-09T20:47:03.845Z,89.50
2019-05-09T20:49:35.835Z,89.50
2019-05-09T20:52:07.622Z,88.90
2019-05-09T20:54:39.177Z,88.60
2019-05-09T20:57:11.387Z,88.40
2019-05-09T20:59:46.026Z,88.30
2019-05-09T21:02:18.227Z,88.20
2019-05-09T21:04:50.529Z,88.60
2019-05-09T21:07:24.671Z,88.80
2019-05-09T21:09:56.926Z,88.90
2019-05-09T21:12:28.661Z,89.10
2019-05-09T21:15:01.332Z,89.20
2019-05-09T21:17:33.534Z,89.40
2019-05-09T21:20:06.746Z,89.50
2019-05-09T21:22:39.603Z,89.40
2019-05-09T21:25:11.925Z,89.40
2019-05-09T21:27:43.269Z,89.80
2019-05-09T21:30:15.138Z,90.00
2019-05-09T21:32:47.240Z,89.80
2019-05-09T21:35:19.088Z,89.70
2019-05-09T21:37:50.858Z,89.70
2019-05-09T21:40:23.843Z,89.40
2019-05-09T21:42:56.126Z,89.10
2019-05-09T21:45:28.153Z,89.60
2019-05-09T21:48:00.250Z,89.60
2019-05-09T21:50:32.140Z,90.10
2019-05-09T21:53:03.987Z,89.80
2019-05-09T21:55:35.749Z,89.30
2019-05-09T21:58:07.268Z,89.40
2019-05-09T22:00:41.930Z,89.60
2019-05-09T22:03:13.970Z,89.40
2019-05-09T22:05:46.325Z,89.60
2019-05-09T22:08:20.166Z,89.70
2019-05-09T22:10:51.428Z,90.00
2019-05-09T22:13:23.746Z,90.10
2019-05-09T22:15:55.599Z,89.80
2019-05-09T22:18:27.176Z,89.70
2019-05-09T22:20:58.479Z,89.80
2019-05-09T22:23:29.904Z,90.00
2019-05-09T22:26:01.196Z,90.00
2019-05-09T22:28:33.134Z,89.50
2019-05-09T22:31:06.259Z,89.20
2019-05-09T22:33:38.180Z,89.50
2019-05-09T22:36:10.170Z,89.90
2019-05-09T22:38:43.634Z,90.10
2019-05-09T22:41:14.138Z,90.00
2019-05-09T22:43:46.125Z,90.10
2019-05-09T22:46:17.629Z,89.40
2019-05-09T22:48:49.596Z,89.20
2019-05-09T22:51:31.544Z,89.40
2019-05-09T22:54:12.383Z,89.40
2019-05-09T22:56:36.358Z,89.30
2019-05-09T22:59:10.291Z,89.10
2019-05-09T23:01:42.318Z,89.60
2019-05-09T23:04:14.306Z,89.60
2019-05-09T23:07:05.536Z,90.00
2019-05-09T23:09:37.518Z,90.10
2019-05-09T23:12:09.580Z,89.40
2019-05-09T23:14:41.730Z,89.30
2019-05-09T23:17:14.004Z,89.20
2019-05-09T23:19:49.093Z,89.20
2019-05-09T23:22:19.418Z,89.50
2019-05-09T23:24:51.435Z,89.70
2019-05-09T23:27:23.404Z,89.90
2019-05-09T23:29:55.221Z,89.70
2019-05-09T23:32:27.981Z,89.80
2019-05-09T23:35:00.188Z,89.70
2019-05-09T23:37:32.104Z,89.80
2019-05-09T23:40:04.044Z,90.00
2019-05-09T23:42:35.676Z,89.80
2019-05-09T23:45:10.021Z,90.20
2019-05-09T23:47:41.117Z,90.10
2019-05-09T23:54:03.886Z,90.10
2019-05-09T23:56:36.894Z,89.90
2019-05-09T23:59:10.126Z,89.60
